Elkins-Randolph Co-Jennings Randolph Field
KEKN : rendu visible

Aérodrome :











RETROUVEZ-NOUS SUR...

 
LOGIN :

S'inscrire | Disclaimer

   EN    FR    IT 

 









Légende :    VFR   VFR Marginal   IFR   IFR Intensif   IFR Très Intensif
Visi : 
Plafond : 
>= 8 km
>= 3000ft
5 à 8 km
1000 à 3000 ft
1500m à 5 km
500 à 1000 ft
800 à 1500m
200 à 500 ft
< 800m
< 200 ft
Symboles :   Orages  Brouillard  Fortes neiges  Fortes précipitations  Vent > 20 kt






- Altitude de l'aérodrome : 1987 ft


KEKN - Elkins-Randolph Co-Jennings Randolph Field

DERNIER METAR :
  • 180551Z AUTO 30007KT 10SM OVC048 07/02 A2996 RMK AO2 SLP154 T00720017 10089 20072 53003

METARs EXPIRÉS :
  • 180451Z AUTO 30008KT 10SM SCT030 OVC049 08/01 A2995 RMK AO2 SLP152 T00780011 401280056
  • 180351Z AUTO 29008KT 10SM OVC050 08/01 A2996 RMK AO2 SLP153 T00830011

TAF KEKN
Valide du 18 à 06h jusqu'au 19 à 06h UTC


180527Z 1806/1906 30008KT P6SM SCT030 OVC050
FM180900 00000KT P6SM OVC050
FM181300 VRB03KT P6SM BKN060
FM181800 31006KT P6SM SCT050



MET'MAP, la Météo Aéronautique d'un coup d'oeil ! - Copyright ORBIFLY Décembre 2007 - Disclaimer

ORBIFLY MET'MAP TEAM :

Programmation & Développement : Alexandra Zaïnal
Conception & Développement : Baudouin d'Aumeries
Co-Programmation & Développement : Marc-Olivier Méhu
Soutien technique & logistique : Manuel Goepfert

Contact : metmap@orbifly.com




SOURCES & CREDITS :

   NOAA       Earth
Advisory